createdAt,value
2023-04-09T00:00:08.667Z,183.60
2023-04-09T00:01:08.671Z,171.00
2023-04-09T00:02:08.772Z,164.30
2023-04-09T00:03:08.857Z,169.50
2023-04-09T00:04:08.891Z,160.40
2023-04-09T00:05:08.707Z,168.10
2023-04-09T00:06:08.610Z,153.90
2023-04-09T00:07:08.978Z,191.60
2023-04-09T00:08:08.677Z,205.30
2023-04-09T00:09:08.662Z,220.10
2023-04-09T00:10:09.156Z,183.80
2023-04-09T00:11:08.678Z,165.70
2023-04-09T00:12:08.631Z,192.20
2023-04-09T00:13:08.787Z,194.00
2023-04-09T00:14:08.708Z,262.90
2023-04-09T00:15:13.044Z,296.60
2023-04-09T00:16:10.628Z,300.30
2023-04-09T00:17:08.561Z,307.50
2023-04-09T00:18:08.512Z,286.60
2023-04-09T00:19:08.675Z,257.70
2023-04-09T00:20:08.510Z,264.50
2023-04-09T00:21:08.715Z,277.70
2023-04-09T00:22:08.616Z,230.30
2023-04-09T00:23:09.008Z,214.60
2023-04-09T00:24:08.596Z,249.80
2023-04-09T00:25:08.554Z,252.00
2023-04-09T00:26:08.625Z,242.30
2023-04-09T00:27:08.534Z,236.60
2023-04-09T00:28:08.555Z,247.00
2023-04-09T00:29:08.518Z,222.90
2023-04-09T00:30:08.819Z,209.60
2023-04-09T00:31:08.547Z,215.00
2023-04-09T00:32:08.679Z,207.00
2023-04-09T00:33:08.497Z,229.50
2023-04-09T00:34:08.602Z,216.50
2023-04-09T00:35:08.494Z,230.40
2023-04-09T00:36:08.447Z,243.30
2023-04-09T00:37:08.433Z,272.60
2023-04-09T00:38:09.298Z,313.20
2023-04-09T00:39:08.401Z,319.50
2023-04-09T00:40:08.543Z,316.00
2023-04-09T00:41:08.463Z,325.50
2023-04-09T00:42:08.897Z,311.70
2023-04-09T00:43:08.431Z,329.10
2023-04-09T00:44:08.531Z,293.70
2023-04-09T00:45:08.430Z,309.20
2023-04-09T00:46:08.429Z,289.40
2023-04-09T00:47:08.455Z,302.40
2023-04-09T00:48:08.473Z,289.40
2023-04-09T00:49:08.388Z,273.30
2023-04-09T00:50:08.389Z,296.00
2023-04-09T00:51:08.380Z,315.90
2023-04-09T00:52:08.785Z,300.10
2023-04-09T00:53:08.345Z,267.70
2023-04-09T00:54:08.361Z,262.60
2023-04-09T00:55:08.335Z,257.60
2023-04-09T00:56:08.314Z,255.00
2023-04-09T00:57:08.373Z,270.30
2023-04-09T00:58:08.397Z,267.60
2023-04-09T00:59:08.384Z,265.20
2023-04-09T01:00:08.347Z,257.40
2023-04-09T01:01:08.440Z,218.50
2023-04-09T01:02:08.373Z,215.00
2023-04-09T01:03:08.529Z,236.90
2023-04-09T01:04:08.316Z,229.60
2023-04-09T01:05:08.610Z,210.70
2023-04-09T01:06:08.282Z,209.70
2023-04-09T01:07:08.370Z,284.80
2023-04-09T01:08:08.252Z,271.90
2023-04-09T01:09:08.224Z,268.20
2023-04-09T01:10:08.178Z,258.20
2023-04-09T01:11:08.587Z,255.60
2023-04-09T01:12:08.163Z,281.80
2023-04-09T01:13:08.161Z,264.60
2023-04-09T01:14:08.404Z,268.40
2023-04-09T01:15:08.145Z,286.40
2023-04-09T01:16:08.205Z,270.90
2023-04-09T01:17:08.211Z,298.80
2023-04-09T01:18:08.176Z,309.90
2023-04-09T01:19:31.092Z,289.70
2023-04-09T01:20:09.158Z,295.10
2023-04-09T01:21:08.494Z,291.10
2023-04-09T01:22:25.739Z,250.90
2023-04-09T01:23:08.086Z,264.20
2023-04-09T01:24:08.208Z,280.70
2023-04-09T01:25:08.226Z,329.20
2023-04-09T01:26:28.881Z,342.50
2023-04-09T01:27:09.098Z,331.80
2023-04-09T01:28:08.221Z,312.50
2023-04-09T01:29:08.153Z,293.30
2023-04-09T01:30:16.053Z,282.50
2023-04-09T01:31:08.347Z,297.50
2023-04-09T01:32:08.157Z,329.70
2023-04-09T01:33:08.010Z,328.60
2023-04-09T01:34:29.019Z,325.20
2023-04-09T01:35:28.358Z,232.50
2023-04-09T01:36:09.113Z,179.00
2023-04-09T01:37:07.997Z,189.20
2023-04-09T01:38:08.004Z,153.10
2023-04-09T01:39:12.500Z,132.70
2023-04-09T01:40:07.956Z,109.80
2023-04-09T01:41:07.999Z,120.60
2023-04-09T01:42:07.987Z,215.70
2023-04-09T01:43:07.994Z,189.90
2023-04-09T01:44:07.954Z,165.00
2023-04-09T01:45:07.963Z,153.00
2023-04-09T01:46:07.953Z,157.70
2023-04-09T01:47:11.910Z,147.00
2023-04-09T01:48:11.861Z,143.20
2023-04-09T01:49:07.980Z,137.30
2023-04-09T01:50:07.943Z,154.80
2023-04-09T01:51:34.910Z,204.30
2023-04-09T01:52:08.929Z,261.20
2023-04-09T01:53:07.883Z,228.10
2023-04-09T01:54:07.877Z,222.10
2023-04-09T01:55:07.905Z,256.50
2023-04-09T01:56:07.906Z,244.50
2023-04-09T01:57:07.922Z,242.30
2023-04-09T01:58:07.835Z,232.50
2023-04-09T01:59:26.710Z,243.90
2023-04-09T02:00:07.858Z,223.40
2023-04-09T02:01:41.843Z,216.90
2023-04-09T02:02:07.977Z,200.60
2023-04-09T02:03:08.080Z,226.00
2023-04-09T02:04:09.930Z,189.80
2023-04-09T02:05:07.785Z,205.10
2023-04-09T02:06:22.110Z,205.90
2023-04-09T02:07:07.804Z,197.50
2023-04-09T02:08:07.835Z,226.30
2023-04-09T02:09:07.812Z,216.70
2023-04-09T02:10:28.785Z,205.70
2023-04-09T02:11:07.782Z,204.50
2023-04-09T02:12:07.756Z,200.90
2023-04-09T02:13:07.743Z,184.80
2023-04-09T02:14:07.792Z,193.10
2023-04-09T02:15:07.903Z,176.00
2023-04-09T02:16:07.750Z,195.80
2023-04-09T02:17:07.708Z,187.20
2023-04-09T02:18:07.739Z,186.00
2023-04-09T02:19:08.103Z,203.70
2023-04-09T02:20:07.740Z,196.90
2023-04-09T02:21:07.712Z,207.90
2023-04-09T02:22:07.697Z,185.30
2023-04-09T02:23:07.799Z,176.20
2023-04-09T02:24:07.707Z,194.90
2023-04-09T02:25:07.722Z,193.00
2023-04-09T02:26:07.713Z,195.60
2023-04-09T02:27:07.646Z,229.40
2023-04-09T02:28:07.660Z,204.40
2023-04-09T02:29:24.106Z,220.90
2023-04-09T02:30:08.679Z,216.60
2023-04-09T02:31:07.725Z,221.50
2023-04-09T02:32:31.668Z,245.40
2023-04-09T02:33:54.902Z,265.00
2023-04-09T02:34:08.586Z,249.30
2023-04-09T02:35:07.695Z,254.20
2023-04-09T02:36:07.599Z,227.10
2023-04-09T02:37:20.262Z,209.50
2023-04-09T02:38:26.425Z,227.70
2023-04-09T02:39:07.624Z,241.40
2023-04-09T02:40:07.580Z,244.50
2023-04-09T02:41:07.639Z,262.20
2023-04-09T02:42:07.579Z,271.10
2023-04-09T02:43:07.559Z,267.70
2023-04-09T02:44:18.215Z,238.10
2023-04-09T02:45:07.564Z,234.00
2023-04-09T02:46:07.567Z,267.50
2023-04-09T02:47:07.535Z,265.10
2023-04-09T02:48:16.917Z,267.50
2023-04-09T02:49:21.980Z,256.30
2023-04-09T02:50:08.541Z,236.40
2023-04-09T02:51:07.516Z,231.30
2023-04-09T02:52:07.556Z,212.60
2023-04-09T02:53:38.180Z,202.00
2023-04-09T02:54:08.511Z,216.10
2023-04-09T02:55:07.477Z,219.00
2023-04-09T02:56:32.700Z,262.30
2023-04-09T02:57:08.506Z,242.00
2023-04-09T02:58:07.442Z,246.50
2023-04-09T02:59:07.474Z,251.20
2023-04-09T03:00:07.437Z,233.00
2023-04-09T03:01:07.453Z,213.90
2023-04-09T03:02:07.515Z,217.50
2023-04-09T03:03:07.587Z,190.30
2023-04-09T03:04:07.554Z,208.30
2023-04-09T03:05:07.385Z,201.70
2023-04-09T03:06:07.404Z,236.60
2023-04-09T03:07:07.428Z,235.80
2023-04-09T03:08:07.441Z,241.90
2023-04-09T03:09:07.435Z,245.10
2023-04-09T03:10:07.365Z,256.10
2023-04-09T03:11:21.610Z,267.50
2023-04-09T03:12:07.362Z,235.60
2023-04-09T03:13:07.362Z,242.30
2023-04-09T03:14:07.407Z,221.30
2023-04-09T03:15:07.323Z,205.40
2023-04-09T03:16:09.806Z,202.00
2023-04-09T03:17:07.349Z,227.50
2023-04-09T03:18:07.367Z,244.50
2023-04-09T03:19:41.039Z,234.40
2023-04-09T03:20:22.592Z,215.00
2023-04-09T03:21:07.304Z,229.20
2023-04-09T03:22:31.179Z,205.80
2023-04-09T03:23:08.299Z,240.10
2023-04-09T03:24:07.283Z,233.90
2023-04-09T03:25:20.857Z,215.60
2023-04-09T03:26:07.243Z,213.20
2023-04-09T03:27:07.312Z,204.80
2023-04-09T03:28:07.238Z,183.00
2023-04-09T03:29:25.916Z,205.30
2023-04-09T03:30:08.284Z,189.10
2023-04-09T03:31:07.296Z,198.30
2023-04-09T03:32:07.218Z,202.80
2023-04-09T03:33:07.210Z,187.50
2023-04-09T03:34:07.228Z,191.40
2023-04-09T03:35:07.212Z,223.30
2023-04-09T03:36:07.267Z,205.30
2023-04-09T03:37:07.199Z,179.60
2023-04-09T03:38:07.183Z,212.00
2023-04-09T03:39:07.121Z,203.60
2023-04-09T03:40:07.173Z,196.30
2023-04-09T03:41:07.210Z,214.70
2023-04-09T03:42:07.120Z,245.10
2023-04-09T03:43:07.164Z,231.50
2023-04-09T03:44:07.149Z,219.80
2023-04-09T03:45:07.132Z,210.50
2023-04-09T03:46:07.156Z,211.80
2023-04-09T03:47:07.193Z,203.10
2023-04-09T03:48:07.126Z,257.90
2023-04-09T03:49:07.152Z,229.10
2023-04-09T03:50:07.096Z,194.10
2023-04-09T03:51:07.082Z,173.10
2023-04-09T03:52:07.146Z,174.30
2023-04-09T03:53:07.044Z,171.50
2023-04-09T03:54:07.062Z,209.00
2023-04-09T03:55:07.049Z,186.20
2023-04-09T03:56:07.064Z,176.80
2023-04-09T03:57:07.041Z,184.30
2023-04-09T03:58:07.048Z,176.50
2023-04-09T03:59:07.029Z,164.30
2023-04-09T04:00:07.036Z,165.90
2023-04-09T04:01:07.024Z,163.80
2023-04-09T04:02:07.109Z,162.70
2023-04-09T04:03:07.214Z,167.20
2023-04-09T04:04:07.191Z,188.00
2023-04-09T04:05:07.025Z,161.90
2023-04-09T04:06:06.951Z,164.40
2023-04-09T04:07:06.906Z,156.90
2023-04-09T04:08:06.928Z,158.90
2023-04-09T04:09:06.957Z,164.50
2023-04-09T04:10:06.925Z,155.40
2023-04-09T04:11:06.903Z,178.80
2023-04-09T04:12:06.941Z,158.50
2023-04-09T04:13:06.931Z,164.60
2023-04-09T04:15:06.570Z,166.30
2023-04-09T04:15:07.983Z,170.10
2023-04-09T04:16:06.930Z,159.00
2023-04-09T04:17:06.903Z,152.90
2023-04-09T04:18:06.904Z,155.70
2023-04-09T04:19:06.933Z,155.40
2023-04-09T04:20:07.117Z,149.80
2023-04-09T04:21:06.930Z,167.30
2023-04-09T04:22:06.820Z,146.10
2023-04-09T04:23:06.985Z,155.20
2023-04-09T04:24:19.055Z,151.50
2023-04-09T04:25:18.270Z,162.60
2023-04-09T04:26:06.837Z,174.10
2023-04-09T04:27:06.872Z,155.70
2023-04-09T04:28:21.083Z,172.20
2023-04-09T04:29:06.801Z,160.60
2023-04-09T04:30:06.788Z,153.30
2023-04-09T04:31:06.862Z,160.30
2023-04-09T04:32:06.880Z,162.40
2023-04-09T04:33:06.783Z,181.60
2023-04-09T04:34:26.790Z,157.40
2023-04-09T04:35:24.167Z,180.90
2023-04-09T04:36:16.720Z,198.30
2023-04-09T04:37:14.640Z,186.10
2023-04-09T04:38:06.753Z,180.90
2023-04-09T04:39:06.759Z,171.10
2023-04-09T04:40:06.746Z,164.20
2023-04-09T04:41:06.763Z,168.20
2023-04-09T04:42:06.828Z,161.00
2023-04-09T04:43:06.704Z,164.10
2023-04-09T04:44:06.712Z,151.70
2023-04-09T04:45:06.682Z,163.50
2023-04-09T04:46:06.764Z,138.60
2023-04-09T04:47:06.745Z,143.90
2023-04-09T04:48:06.700Z,128.80
2023-04-09T04:49:06.705Z,132.70
2023-04-09T04:50:06.706Z,131.30
2023-04-09T04:51:06.633Z,125.20
2023-04-09T04:52:06.691Z,125.00
2023-04-09T04:53:06.715Z,128.80
2023-04-09T04:54:06.638Z,121.80
2023-04-09T04:55:06.666Z,124.40
2023-04-09T04:56:20.627Z,123.20
2023-04-09T04:57:07.720Z,124.50
2023-04-09T04:58:11.827Z,122.40
2023-04-09T04:59:06.625Z,112.80
2023-04-09T05:00:06.615Z,125.00
2023-04-09T05:01:06.649Z,128.70
2023-04-09T05:02:06.677Z,127.80
2023-04-09T05:03:06.788Z,120.70
2023-04-09T05:04:06.643Z,136.40
2023-04-09T05:05:06.561Z,141.40
2023-04-09T05:06:06.558Z,144.20
2023-04-09T05:07:06.561Z,142.00
2023-04-09T05:08:06.584Z,135.60
2023-04-09T05:09:06.591Z,131.10
2023-04-09T05:10:06.522Z,121.40
2023-04-09T05:11:06.541Z,127.80
2023-04-09T05:12:06.550Z,114.30
2023-04-09T05:13:06.506Z,114.40
2023-04-09T05:14:06.516Z,104.10
2023-04-09T05:15:06.561Z,105.90
2023-04-09T05:16:06.511Z,102.00
2023-04-09T05:17:06.476Z,119.70
2023-04-09T05:18:22.642Z,129.20
2023-04-09T05:19:06.466Z,109.30
2023-04-09T05:20:06.679Z,128.00
2023-04-09T05:21:22.433Z,127.80
2023-04-09T05:22:07.442Z,166.40
2023-04-09T05:23:06.424Z,171.00
2023-04-09T05:24:06.416Z,169.70
2023-04-09T05:25:06.423Z,182.90
2023-04-09T05:26:06.457Z,184.50
2023-04-09T05:27:06.444Z,193.00
2023-04-09T05:28:06.403Z,176.00
2023-04-09T05:29:06.422Z,180.50
2023-04-09T05:30:29.687Z,213.10
2023-04-09T05:31:07.505Z,211.20
2023-04-09T05:32:06.343Z,188.10
2023-04-09T05:33:28.204Z,186.90
2023-04-09T05:34:07.364Z,183.00
2023-04-09T05:35:06.382Z,177.60
2023-04-09T05:36:06.400Z,171.20
2023-04-09T05:37:06.400Z,218.90
2023-04-09T05:38:06.392Z,206.00
2023-04-09T05:39:06.320Z,232.60
2023-04-09T05:40:06.349Z,233.40
2023-04-09T05:41:06.342Z,230.00
2023-04-09T05:42:06.394Z,238.60
2023-04-09T05:43:06.330Z,256.60
2023-04-09T05:44:06.290Z,225.50
2023-04-09T05:45:06.310Z,213.50
2023-04-09T05:46:06.279Z,222.50
2023-04-09T05:47:06.291Z,256.60
2023-04-09T05:48:06.322Z,236.60
2023-04-09T05:49:06.283Z,258.80
2023-04-09T05:50:06.294Z,229.40
2023-04-09T05:51:06.236Z,227.70
2023-04-09T05:52:06.302Z,204.30
2023-04-09T05:53:06.321Z,175.40
2023-04-09T05:54:06.274Z,178.50
2023-04-09T05:55:06.200Z,180.10
2023-04-09T05:56:06.232Z,176.10
2023-04-09T05:57:06.225Z,188.60
2023-04-09T05:58:06.165Z,211.80
2023-04-09T05:59:06.250Z,220.60
2023-04-09T06:00:06.205Z,205.20
2023-04-09T06:01:07.184Z,238.10
2023-04-09T06:02:06.369Z,229.20
2023-04-09T06:03:06.264Z,253.50
2023-04-09T06:04:06.439Z,234.20
2023-04-09T06:05:06.165Z,252.70
2023-04-09T06:06:06.184Z,255.70
2023-04-09T06:07:06.121Z,246.30
2023-04-09T06:08:06.134Z,253.90
2023-04-09T06:09:06.146Z,244.90
2023-04-09T06:10:06.167Z,276.60
2023-04-09T06:11:06.098Z,258.30
2023-04-09T06:12:06.087Z,257.20
2023-04-09T06:13:06.092Z,283.40
2023-04-09T06:14:06.116Z,245.00
2023-04-09T06:15:06.142Z,238.60
2023-04-09T06:16:06.122Z,241.10
2023-04-09T06:17:06.083Z,249.10
2023-04-09T06:18:06.202Z,268.80
2023-04-09T06:19:06.108Z,241.60
2023-04-09T06:20:06.056Z,235.70
2023-04-09T06:21:06.286Z,276.40
2023-04-09T06:22:06.070Z,238.50
2023-04-09T06:23:06.104Z,190.10
2023-04-09T06:24:06.070Z,129.90
2023-04-09T06:25:06.033Z,134.80
2023-04-09T06:26:06.082Z,129.10
2023-04-09T06:27:06.004Z,115.30
2023-04-09T06:28:05.982Z,167.10
2023-04-09T06:29:06.008Z,175.30
2023-04-09T06:30:05.990Z,165.30
2023-04-09T06:31:05.979Z,150.80
2023-04-09T06:32:06.033Z,169.80
2023-04-09T06:33:05.984Z,156.00
2023-04-09T06:34:05.907Z,149.90
2023-04-09T06:35:05.962Z,225.80
2023-04-09T06:36:06.004Z,235.90
2023-04-09T06:37:05.986Z,308.10
2023-04-09T06:38:05.915Z,343.10
2023-04-09T06:39:05.960Z,357.30
2023-04-09T06:40:05.920Z,370.40
2023-04-09T06:41:05.944Z,372.90
2023-04-09T06:42:05.917Z,337.00
2023-04-09T06:43:05.922Z,324.00
2023-04-09T06:44:05.908Z,368.00
2023-04-09T06:45:05.927Z,382.50
2023-04-09T06:46:05.990Z,300.30
2023-04-09T06:47:05.904Z,399.50
2023-04-09T06:48:05.955Z,355.70
2023-04-09T06:49:05.913Z,408.80
2023-04-09T06:50:05.828Z,405.50
2023-04-09T06:51:05.857Z,306.40
2023-04-09T06:52:05.880Z,272.50
2023-04-09T06:53:05.865Z,257.80
2023-04-09T06:54:05.867Z,294.50
2023-04-09T06:55:05.814Z,267.40
2023-04-09T06:56:05.788Z,224.50
2023-04-09T06:57:05.820Z,202.50
2023-04-09T06:58:05.794Z,160.60
2023-04-09T06:59:05.907Z,186.00
2023-04-09T07:00:05.764Z,174.10
2023-04-09T07:01:05.759Z,156.30
2023-04-09T07:02:05.835Z,151.80
2023-04-09T07:03:05.926Z,129.60
2023-04-09T07:04:05.963Z,161.90
2023-04-09T07:05:05.797Z,156.30
2023-04-09T07:06:05.748Z,152.30
2023-04-09T07:07:05.745Z,148.70
2023-04-09T07:08:06.721Z,151.70
2023-04-09T07:09:05.823Z,131.90
2023-04-09T07:10:05.728Z,149.60
2023-04-09T07:11:05.746Z,165.30
2023-04-09T07:12:05.686Z,146.30
2023-04-09T07:13:05.688Z,188.50
2023-04-09T07:14:05.703Z,202.30
2023-04-09T07:15:05.762Z,177.60
2023-04-09T07:16:05.741Z,166.40
2023-04-09T07:17:05.662Z,132.30
2023-04-09T07:18:05.698Z,121.40
2023-04-09T07:19:05.639Z,127.30
2023-04-09T07:20:05.661Z,139.50
2023-04-09T07:21:05.866Z,147.10
2023-04-09T07:22:05.660Z,135.50
2023-04-09T07:23:05.631Z,198.90
2023-04-09T07:24:05.642Z,197.20
2023-04-09T07:25:05.600Z,203.60
2023-04-09T07:26:05.611Z,202.70
2023-04-09T07:27:05.686Z,190.90
2023-04-09T07:28:05.610Z,258.30
2023-04-09T07:29:05.577Z,245.20
2023-04-09T07:30:05.636Z,253.90
2023-04-09T07:31:05.643Z,264.30
2023-04-09T07:32:05.627Z,283.40
2023-04-09T07:33:05.625Z,244.80
2023-04-09T07:34:05.565Z,282.10
2023-04-09T07:35:05.544Z,259.90
2023-04-09T07:36:05.571Z,228.40
2023-04-09T07:37:05.560Z,269.00
2023-04-09T07:38:05.593Z,331.60
2023-04-09T07:39:05.508Z,253.50
2023-04-09T07:40:05.500Z,314.50
2023-04-09T07:41:05.780Z,388.70
2023-04-09T07:42:05.509Z,358.20
2023-04-09T07:43:05.518Z,315.60
2023-04-09T07:44:05.463Z,323.40
2023-04-09T07:45:05.443Z,298.90
2023-04-09T07:46:05.444Z,299.00
2023-04-09T07:47:05.549Z,354.80
2023-04-09T07:48:05.583Z,376.70
2023-04-09T07:49:05.509Z,324.70
2023-04-09T07:50:05.460Z,330.70
2023-04-09T07:51:05.426Z,299.00
2023-04-09T07:52:05.453Z,322.10
2023-04-09T07:53:05.402Z,358.00
2023-04-09T07:54:05.447Z,358.80
2023-04-09T07:55:05.399Z,369.10
2023-04-09T07:56:05.405Z,408.40
2023-04-09T07:57:05.418Z,475.20
2023-04-09T07:58:05.368Z,544.50
2023-04-09T07:59:05.389Z,727.40
2023-04-09T08:00:05.448Z,783.20
2023-04-09T08:01:05.562Z,722.90
2023-04-09T08:02:05.377Z,851.40
2023-04-09T08:03:05.493Z,844.30
2023-04-09T08:04:05.495Z,750.60
2023-04-09T08:05:05.427Z,722.30
2023-04-09T08:06:05.318Z,740.00
2023-04-09T08:07:05.326Z,746.30
2023-04-09T08:08:05.352Z,850.90
2023-04-09T08:09:05.308Z,732.00
2023-04-09T08:10:05.338Z,820.30
2023-04-09T08:11:05.337Z,837.90
2023-04-09T08:12:05.283Z,655.30
2023-04-09T08:13:10.164Z,706.30
2023-04-09T08:14:06.348Z,699.40
2023-04-09T08:15:05.241Z,600.70
2023-04-09T08:16:05.317Z,870.70
2023-04-09T08:17:05.303Z,823.80
2023-04-09T08:18:05.280Z,844.60
2023-04-09T08:19:05.243Z,746.90
2023-04-09T08:20:05.240Z,764.00
2023-04-09T08:21:05.210Z,667.90
2023-04-09T08:22:05.729Z,717.80
2023-04-09T08:23:05.214Z,747.30
2023-04-09T08:24:05.228Z,776.20
2023-04-09T08:25:05.260Z,513.70
2023-04-09T08:26:05.191Z,565.20
2023-04-09T08:27:05.351Z,483.10
2023-04-09T08:28:05.270Z,606.40
2023-04-09T08:29:05.189Z,560.30
2023-04-09T08:30:05.154Z,603.30
2023-04-09T08:31:05.182Z,645.60
2023-04-09T08:32:05.231Z,699.10
2023-04-09T08:33:05.222Z,622.40
2023-04-09T08:34:05.166Z,656.60
2023-04-09T08:35:05.155Z,770.40
2023-04-09T08:36:05.187Z,665.50
2023-04-09T08:37:05.145Z,636.00
2023-04-09T08:38:05.176Z,624.40
2023-04-09T08:39:05.101Z,570.10
2023-04-09T08:40:05.126Z,549.70
2023-04-09T08:41:05.141Z,617.50
2023-04-09T08:42:05.139Z,648.60
2023-04-09T08:43:05.069Z,499.60
2023-04-09T08:44:05.105Z,425.10
2023-04-09T08:45:05.070Z,535.00
2023-04-09T08:46:05.206Z,572.30
2023-04-09T08:47:05.096Z,452.60
2023-04-09T08:48:05.209Z,427.80
2023-04-09T08:49:05.095Z,418.50
2023-04-09T08:50:05.057Z,421.30
2023-04-09T08:51:05.111Z,496.70
2023-04-09T08:52:05.870Z,455.90
2023-04-09T08:53:07.645Z,432.20
2023-04-09T08:54:06.122Z,391.60
2023-04-09T08:55:05.047Z,394.40
2023-04-09T08:56:04.966Z,279.10
2023-04-09T08:57:05.064Z,370.80
2023-04-09T08:58:04.987Z,344.30
2023-04-09T08:59:04.977Z,273.80
2023-04-09T09:00:05.030Z,259.80
2023-04-09T09:01:04.972Z,304.60
2023-04-09T09:02:05.013Z,285.70
2023-04-09T09:03:05.190Z,294.10
2023-04-09T09:04:04.985Z,296.10
2023-04-09T09:05:04.971Z,374.40
2023-04-09T09:06:04.903Z,283.90
2023-04-09T09:07:04.897Z,328.10
2023-04-09T09:08:04.959Z,355.00
2023-04-09T09:09:04.865Z,345.70
2023-04-09T09:10:04.870Z,308.10
2023-04-09T09:11:04.947Z,283.90
2023-04-09T09:12:04.828Z,352.00
2023-04-09T09:13:04.855Z,409.70
2023-04-09T09:14:04.823Z,355.80
2023-04-09T09:15:04.904Z,384.90
2023-04-09T09:16:04.871Z,420.20
2023-04-09T09:17:04.928Z,470.60
2023-04-09T09:18:04.860Z,495.80
2023-04-09T09:19:04.791Z,476.00
2023-04-09T09:20:04.937Z,450.70
2023-04-09T09:21:04.873Z,448.70
2023-04-09T09:22:04.917Z,474.90
2023-04-09T09:23:04.781Z,312.90
2023-04-09T09:24:04.840Z,378.10
2023-04-09T09:25:05.143Z,401.90
2023-04-09T09:26:04.864Z,335.30
2023-04-09T09:27:04.983Z,377.70
2023-04-09T09:28:04.840Z,458.00
2023-04-09T09:29:04.726Z,365.90
2023-04-09T09:30:04.785Z,366.50
2023-04-09T09:31:04.798Z,343.90
2023-04-09T09:32:04.767Z,403.20
2023-04-09T09:33:04.779Z,330.20
2023-04-09T09:34:04.750Z,442.80
2023-04-09T09:35:04.775Z,477.10
2023-04-09T09:36:04.751Z,493.50
2023-04-09T09:37:05.075Z,489.70
2023-04-09T09:38:04.848Z,415.20
2023-04-09T09:39:05.002Z,316.50
2023-04-09T09:40:04.710Z,363.90
2023-04-09T09:41:05.084Z,397.80
2023-04-09T09:42:04.785Z,332.00
2023-04-09T09:43:05.241Z,395.70
2023-04-09T09:44:04.960Z,321.50
2023-04-09T09:45:05.670Z,319.90
2023-04-09T09:46:04.627Z,351.20
2023-04-09T09:47:04.716Z,430.10
2023-04-09T09:48:04.732Z,411.50
2023-04-09T09:49:04.653Z,506.90
2023-04-09T09:50:04.720Z,415.20
2023-04-09T09:51:04.591Z,436.20
2023-04-09T09:52:04.590Z,434.60
2023-04-09T09:53:04.589Z,492.10
2023-04-09T09:54:04.608Z,430.20
2023-04-09T09:55:04.550Z,413.30
2023-04-09T09:56:04.549Z,459.20
2023-04-09T09:57:04.602Z,424.10
2023-04-09T09:58:04.583Z,411.40
2023-04-09T09:59:04.729Z,420.00
2023-04-09T10:00:05.230Z,445.60
2023-04-09T10:01:04.774Z,441.00
2023-04-09T10:02:04.833Z,456.80
2023-04-09T10:03:04.637Z,433.10
2023-04-09T10:04:04.599Z,487.70
2023-04-09T10:05:04.540Z,475.20
2023-04-09T10:06:04.796Z,516.60
2023-04-09T10:07:04.771Z,564.30
2023-04-09T10:08:04.640Z,591.60
2023-04-09T10:09:04.564Z,617.80
2023-04-09T10:10:04.544Z,647.20
2023-04-09T10:11:04.558Z,524.80
2023-04-09T10:12:04.554Z,604.60
2023-04-09T10:13:04.485Z,548.70
2023-04-09T10:14:04.425Z,572.10
2023-04-09T10:15:04.396Z,518.50
2023-04-09T10:16:04.660Z,564.60
2023-04-09T10:17:04.442Z,543.40
2023-04-09T10:18:04.490Z,584.80
2023-04-09T10:19:04.441Z,535.60
2023-04-09T10:20:04.662Z,575.50
2023-04-09T10:21:04.485Z,581.50
2023-04-09T10:22:04.764Z,657.20
2023-04-09T10:23:04.351Z,617.70
2023-04-09T10:24:04.412Z,574.50
2023-04-09T10:25:04.337Z,557.80
2023-04-09T10:26:04.528Z,648.70
2023-04-09T10:27:04.793Z,561.50
2023-04-09T10:28:04.382Z,554.20
2023-04-09T10:29:04.338Z,570.60
2023-04-09T10:30:04.538Z,606.50
2023-04-09T10:31:04.495Z,511.60
2023-04-09T10:32:04.662Z,524.80
2023-04-09T10:33:04.414Z,498.10
2023-04-09T10:34:04.432Z,507.00
2023-04-09T10:35:04.321Z,483.00
2023-04-09T10:36:04.321Z,476.70
2023-04-09T10:37:04.384Z,511.20
2023-04-09T10:38:04.307Z,538.40
2023-04-09T10:39:04.815Z,466.00
2023-04-09T10:40:04.544Z,525.30
2023-04-09T10:41:04.789Z,512.40
2023-04-09T10:42:04.843Z,489.30
2023-04-09T10:43:05.040Z,484.30
2023-04-09T10:44:04.684Z,459.60
2023-04-09T10:45:04.545Z,455.00
2023-04-09T10:46:04.474Z,445.40
2023-04-09T10:47:17.829Z,439.60
2023-04-09T10:48:05.379Z,473.10
2023-04-09T10:49:04.787Z,455.60
2023-04-09T10:50:04.513Z,451.70
2023-04-09T10:51:05.829Z,460.40
2023-04-09T10:52:04.560Z,494.20
2023-04-09T10:53:04.904Z,450.80
2023-04-09T10:54:04.514Z,481.00
2023-04-09T10:55:04.644Z,376.70
2023-04-09T10:56:04.743Z,355.10
2023-04-09T10:57:04.715Z,350.90
2023-04-09T10:58:04.671Z,315.40
2023-04-09T10:59:04.955Z,360.50
2023-04-09T11:00:04.550Z,365.90
2023-04-09T11:01:04.512Z,369.20
2023-04-09T11:02:04.298Z,392.70
2023-04-09T11:03:04.317Z,401.20
2023-04-09T11:04:04.510Z,362.50
2023-04-09T11:05:04.589Z,366.70
2023-04-09T11:06:04.448Z,392.10
2023-04-09T11:07:04.489Z,404.60
2023-04-09T11:08:04.367Z,387.50
2023-04-09T11:09:04.501Z,399.40
2023-04-09T11:10:05.788Z,447.50
2023-04-09T11:11:04.580Z,411.50
2023-04-09T11:12:04.569Z,387.20
2023-04-09T11:13:05.388Z,370.60
2023-04-09T11:14:04.366Z,370.10
2023-04-09T11:15:04.386Z,356.90
2023-04-09T11:16:04.625Z,374.70
2023-04-09T11:17:04.387Z,390.00
2023-04-09T11:18:04.200Z,429.20
2023-04-09T11:19:04.007Z,417.60
2023-04-09T11:20:04.122Z,403.40
2023-04-09T11:21:04.455Z,436.30
2023-04-09T11:22:04.021Z,567.50
2023-04-09T11:23:04.194Z,465.20
2023-04-09T11:24:04.504Z,456.10
2023-04-09T11:25:04.093Z,546.40
2023-04-09T11:26:04.135Z,458.70
2023-04-09T11:27:04.231Z,437.60
2023-04-09T11:28:04.512Z,419.80
2023-04-09T11:29:04.226Z,575.90
2023-04-09T11:30:04.504Z,483.10
2023-04-09T11:31:04.233Z,593.60
2023-04-09T11:32:04.875Z,576.20
2023-04-09T11:33:04.510Z,635.90
2023-04-09T11:34:04.227Z,734.90
2023-04-09T11:35:04.346Z,901.00
2023-04-09T11:36:04.158Z,827.80
2023-04-09T11:37:03.921Z,846.20
2023-04-09T11:38:03.987Z,571.00
2023-04-09T11:39:04.514Z,575.80
2023-04-09T11:40:04.366Z,595.20
2023-04-09T11:41:04.521Z,562.30
2023-04-09T11:42:04.370Z,716.20
2023-04-09T11:43:04.484Z,602.40
2023-04-09T11:44:04.302Z,762.60
2023-04-09T11:45:04.350Z,951.30
2023-04-09T11:46:04.323Z,829.60
2023-04-09T11:47:04.470Z,752.40
2023-04-09T11:48:04.008Z,790.50
2023-04-09T11:49:04.572Z,977.40
2023-04-09T11:50:04.102Z,994.40
2023-04-09T11:51:03.896Z,1036.40
2023-04-09T11:52:03.989Z,596.60
2023-04-09T11:53:04.360Z,534.20
2023-04-09T11:54:04.143Z,594.90
2023-04-09T11:55:04.393Z,641.80
2023-04-09T11:56:04.309Z,663.40
2023-04-09T11:57:04.359Z,761.70
2023-04-09T11:58:04.197Z,617.90
2023-04-09T11:59:04.466Z,632.90
2023-04-09T12:00:05.315Z,706.20
2023-04-09T12:01:05.265Z,560.40
2023-04-09T12:02:04.377Z,460.40
2023-04-09T12:03:04.402Z,429.90
2023-04-09T12:04:04.221Z,423.60
2023-04-09T12:05:04.518Z,147.50
2023-04-09T12:06:04.272Z,243.80
2023-04-09T12:07:04.313Z,136.70
2023-04-09T12:08:04.198Z,119.00
2023-04-09T12:09:04.146Z,131.80
2023-04-09T12:10:04.610Z,109.90
2023-04-09T12:11:04.180Z,135.70
2023-04-09T12:12:04.085Z,74.40
2023-04-09T12:13:05.140Z,97.70
2023-04-09T12:14:04.224Z,106.60
2023-04-09T12:15:04.181Z,93.30
2023-04-09T12:16:04.520Z,93.70
2023-04-09T12:17:03.972Z,111.00
2023-04-09T12:18:04.385Z,168.10
2023-04-09T12:19:04.099Z,177.10
2023-04-09T12:20:04.064Z,175.10
2023-04-09T12:21:04.066Z,176.60
2023-04-09T12:22:04.262Z,194.20
2023-04-09T12:23:03.870Z,204.60
2023-04-09T12:24:03.752Z,211.70
2023-04-09T12:25:03.747Z,158.20
2023-04-09T12:26:03.997Z,166.40
2023-04-09T12:27:04.123Z,169.40
2023-04-09T12:28:03.671Z,160.60